Time;durP1;ratioP1;P1;durP2;ratioP2;P2;SDS_P1;SDS_P2;PMS_P1;PMS_P2;Temp;Humidity;BMP_temperature;BMP_pressure;BME280_temperature;BME280_humidity;BME280_pressure;Samples;Min_cycle;Max_cycle;Signal;HPM_P1;HPM_P2
2024/04/12 00:00:57;;;;;;;;;;;13.50;99.90;;;;;;5440278;26;20351;-62
2024/04/12 00:03:24;;;;;;;;;;;13.50;99.90;;;;;;5451641;26;19929;-62
2024/04/12 00:05:53;;;;;;;;;;;13.50;99.90;;;;;;5439077;26;20283;-62
2024/04/12 00:08:22;;;;;;;;;;;13.50;99.90;;;;;;5450838;26;19929;-62
2024/04/12 00:10:49;;;;;;;;;;;13.50;99.90;;;;;;5451640;26;19934;-62
2024/04/12 00:13:16;;;;;;;;;;;13.50;99.90;;;;;;5446037;26;19928;-63
2024/04/12 00:15:43;;;;;;;;;;;13.40;99.90;;;;;;5440742;26;19940;-63
2024/04/12 00:18:11;;;;;;;;;;;13.50;99.90;;;;;;5452941;26;19934;-62
2024/04/12 00:20:38;;;;;;;;;;;13.30;99.90;;;;;;5446740;26;19929;-62
2024/04/12 00:23:06;;;;;;;;;;;13.40;99.90;;;;;;5448171;26;19934;-62
2024/04/12 00:25:33;;;;;;;;;;;13.40;99.90;;;;;;5437487;26;19928;-62
2024/04/12 00:28:01;;;;;;;;;;;13.50;99.90;;;;;;5448158;26;20355;-62
2024/04/12 00:31:02;;;;;;;;;;;13.50;99.90;;;;;;5442582;26;19934;-63
2024/04/12 00:33:21;;;;;;;;;;;13.50;99.90;;;;;;5433192;26;20363;-63
2024/04/12 00:35:49;;;;;;;;;;;13.50;99.90;;;;;;5428573;26;20464;-62
2024/04/12 00:38:16;;;;;;;;;;;13.80;99.90;;;;;;5470699;26;19934;-63
2024/04/12 00:40:47;;;;;;;;;;;13.50;99.90;;;;;;5459405;26;20010;-62
2024/04/12 00:43:15;;;;;;;;;;;13.50;99.90;;;;;;5457523;26;19935;-63
2024/04/12 00:45:48;;;;;;;;;;;13.50;99.90;;;;;;5447165;26;20290;-62
2024/04/12 00:48:15;;;;;;;;;;;13.40;99.90;;;;;;5459809;26;20480;-62
2024/04/12 00:50:42;;;;;;;;;;;13.50;99.90;;;;;;5447397;26;19928;-62
2024/04/12 00:53:09;;;;;;;;;;;13.40;99.90;;;;;;5454644;26;20495;-62
2024/04/12 00:55:38;;;;;;;;;;;13.40;99.90;;;;;;5459326;26;20399;-63
2024/04/12 00:58:13;;;;;;;;;;;13.40;99.90;;;;;;5454829;26;20386;-63
2024/04/12 01:00:46;;;;;;;;;;;13.60;99.90;;;;;;5437750;26;19928;-63
2024/04/12 01:03:15;;;;;;;;;;;13.60;99.90;;;;;;5454506;26;20324;-63
2024/04/12 01:05:42;;;;;;;;;;;13.50;99.90;;;;;;5438445;26;19928;-63
2024/04/12 01:08:08;;;;;;;;;;;13.40;99.90;;;;;;5445376;26;19928;-62
2024/04/12 01:10:36;;;;;;;;;;;13.60;99.90;;;;;;5458616;26;19929;-63
2024/04/12 01:13:04;;;;;;;;;;;13.60;99.90;;;;;;5452727;26;19934;-62
2024/04/12 01:15:37;;;;;;;;;;;13.60;99.90;;;;;;5440532;26;20501;-62
2024/04/12 01:18:10;;;;;;;;;;;13.60;99.90;;;;;;5456942;26;20307;-62
2024/04/12 01:20:39;;;;;;;;;;;13.50;99.90;;;;;;5440523;26;19929;-63
2024/04/12 01:23:06;;;;;;;;;;;13.60;99.90;;;;;;5463356;26;19928;-63
2024/04/12 01:25:33;;;;;;;;;;;13.50;99.90;;;;;;5461240;26;20282;-63
2024/04/12 01:28:03;;;;;;;;;;;13.40;99.90;;;;;;5446835;26;19929;-62
2024/04/12 01:30:30;;;;;;;;;;;13.60;99.90;;;;;;5443104;26;20351;-63
2024/04/12 01:32:57;;;;;;;;;;;13.60;99.90;;;;;;5470132;26;19938;-63
2024/04/12 01:35:24;;;;;;;;;;;13.60;99.90;;;;;;5452126;26;19950;-63
2024/04/12 01:37:51;;;;;;;;;;;13.60;99.90;;;;;;5457141;26;19928;-64
2024/04/12 01:40:22;;;;;;;;;;;13.50;99.90;;;;;;5457226;26;19928;-64
2024/04/12 01:42:49;;;;;;;;;;;13.50;99.90;;;;;;5470923;26;19934;-63
2024/04/12 01:45:16;;;;;;;;;;;13.50;99.90;;;;;;5466526;26;19927;-65
2024/04/12 01:47:45;;;;;;;;;;;13.60;99.90;;;;;;5439216;26;20021;-63
2024/04/12 01:50:13;;;;;;;;;;;13.60;99.90;;;;;;5448606;26;19932;-63
2024/04/12 01:52:57;;;;;;;;;;;13.50;99.90;;;;;;5460418;26;19927;-63
2024/04/12 01:55:27;;;;;;;;;;;13.50;99.90;;;;;;5452337;26;19928;-63
2024/04/12 01:57:55;;;;;;;;;;;13.50;99.90;;;;;;5451557;26;20485;-63
2024/04/12 02:00:25;;;;;;;;;;;13.60;99.90;;;;;;5440094;26;19935;-63
2024/04/12 02:02:53;;;;;;;;;;;13.50;99.90;;;;;;5445568;26;19935;-63
2024/04/12 02:05:32;;;;;;;;;;;13.50;99.90;;;;;;5452270;26;19928;-63
2024/04/12 02:08:03;;;;;;;;;;;13.50;99.90;;;;;;5440003;26;20291;-63
2024/04/12 02:10:33;;;;;;;;;;;13.50;99.90;;;;;;5442933;26;20748;-63
2024/04/12 02:13:00;;;;;;;;;;;13.50;99.90;;;;;;5441695;26;19936;-63
2024/04/12 02:15:27;;;;;;;;;;;13.60;99.90;;;;;;5440380;26;19935;-62
2024/04/12 02:17:57;;;;;;;;;;;13.60;99.90;;;;;;5449057;26;19934;-62
2024/04/12 02:20:33;;;;;;;;;;;13.70;99.90;;;;;;5432203;26;20404;-63
2024/04/12 02:23:05;;;;;;;;;;;13.70;99.90;;;;;;5453592;26;20374;-63
2024/04/12 02:25:41;;;;;;;;;;;13.70;99.90;;;;;;5451571;26;19928;-62
2024/04/12 02:28:09;;;;;;;;;;;13.60;99.90;;;;;;5436860;26;19928;-63
2024/04/12 02:30:43;;;;;;;;;;;13.70;99.90;;;;;;5438989;26;20492;-62
2024/04/12 02:33:11;;;;;;;;;;;13.70;99.90;;;;;;5437814;26;19935;-62
2024/04/12 02:35:41;;;;;;;;;;;13.70;99.90;;;;;;5464971;26;20371;-63
2024/04/12 02:38:15;;;;;;;;;;;13.60;99.90;;;;;;5461280;26;19934;-62
2024/04/12 02:40:42;;;;;;;;;;;13.60;99.90;;;;;;5442877;26;19934;-62
2024/04/12 02:43:10;;;;;;;;;;;13.60;99.90;;;;;;5441437;26;20470;-63
2024/04/12 02:45:36;;;;;;;;;;;13.60;99.90;;;;;;5434539;26;19928;-63
2024/04/12 02:48:04;;;;;;;;;;;13.60;99.90;;;;;;5445653;26;20136;-63
2024/04/12 02:50:31;;;;;;;;;;;13.60;99.90;;;;;;5442695;26;21324;-63
2024/04/12 02:52:58;;;;;;;;;;;13.70;99.90;;;;;;5457907;26;20492;-63
2024/04/12 02:55:30;;;;;;;;;;;13.80;99.90;;;;;;5451369;26;19932;-63
2024/04/12 02:57:57;;;;;;;;;;;13.60;99.90;;;;;;5438377;26;19929;-63
2024/04/12 03:00:25;;;;;;;;;;;13.70;99.90;;;;;;5447289;26;20372;-63
2024/04/12 03:02:52;;;;;;;;;;;13.60;99.90;;;;;;5437592;26;20264;-63
2024/04/12 03:05:20;;;;;;;;;;;13.60;99.90;;;;;;5448858;26;19928;-63
2024/04/12 03:07:46;;;;;;;;;;;13.70;99.90;;;;;;5439155;26;20540;-62
2024/04/12 03:10:19;;;;;;;;;;;13.70;99.90;;;;;;5439449;26;19928;-63
2024/04/12 03:12:46;;;;;;;;;;;13.60;99.90;;;;;;5451003;26;19935;-62
2024/04/12 03:15:14;;;;;;;;;;;13.70;99.90;;;;;;5439822;26;19928;-62
2024/04/12 03:17:47;;;;;;;;;;;13.60;99.90;;;;;;5439337;26;20357;-63
2024/04/12 03:20:15;;;;;;;;;;;13.70;99.90;;;;;;5437693;26;19928;-63
2024/04/12 03:22:43;;;;;;;;;;;13.60;99.90;;;;;;5443010;26;19947;-63
2024/04/12 03:25:10;;;;;;;;;;;13.60;99.90;;;;;;5450771;26;20371;-63
2024/04/12 03:27:38;;;;;;;;;;;13.60;99.90;;;;;;5438085;26;19928;-62
2024/04/12 03:30:14;;;;;;;;;;;13.60;99.90;;;;;;5442521;26;19928;-63
2024/04/12 03:32:44;;;;;;;;;;;13.70;99.90;;;;;;5443245;26;19935;-62
2024/04/12 03:35:16;;;;;;;;;;;13.60;99.90;;;;;;5445213;26;19935;-63
2024/04/12 03:38:24;;;;;;;;;;;13.70;99.90;;;;;;5438059;26;19928;-63
2024/04/12 03:40:31;;;;;;;;;;;13.50;99.90;;;;;;5449713;26;20264;-62
2024/04/12 03:43:02;;;;;;;;;;;13.60;99.90;;;;;;5453456;26;19929;-62
2024/04/12 03:45:30;;;;;;;;;;;13.60;99.90;;;;;;5444792;26;19936;-62
2024/04/12 03:48:04;;;;;;;;;;;13.70;99.90;;;;;;5442590;26;20378;-62
2024/04/12 03:50:31;;;;;;;;;;;13.50;99.90;;;;;;5445258;26;20322;-62
2024/04/12 03:53:14;;;;;;;;;;;13.50;99.90;;;;;;5438174;26;19929;-62
2024/04/12 03:55:44;;;;;;;;;;;13.60;99.90;;;;;;5439822;26;20367;-62
2024/04/12 03:58:17;;;;;;;;;;;13.50;99.90;;;;;;5449967;26;20302;-62
2024/04/12 04:00:46;;;;;;;;;;;13.60;99.90;;;;;;5435952;26;19928;-62
2024/04/12 04:03:31;;;;;;;;;;;13.50;99.90;;;;;;5443787;26;19935;-62
2024/04/12 04:05:58;;;;;;;;;;;13.60;99.90;;;;;;5444563;26;19928;-62
2024/04/12 04:08:29;;;;;;;;;;;13.60;99.90;;;;;;5452230;26;19934;-62
2024/04/12 04:10:56;;;;;;;;;;;13.50;99.90;;;;;;5445381;26;19939;-62
2024/04/12 04:13:27;;;;;;;;;;;13.50;99.90;;;;;;5451343;26;19928;-62
2024/04/12 04:15:55;;;;;;;;;;;13.60;99.90;;;;;;5442108;26;20515;-63
2024/04/12 04:18:23;;;;;;;;;;;13.60;99.90;;;;;;5437874;26;20290;-63
2024/04/12 04:20:50;;;;;;;;;;;13.40;99.90;;;;;;5437042;26;19928;-63
2024/04/12 04:23:17;;;;;;;;;;;13.50;99.90;;;;;;5440868;26;19939;-62
2024/04/12 04:25:44;;;;;;;;;;;13.40;99.90;;;;;;5464192;26;19932;-62
2024/04/12 04:28:11;;;;;;;;;;;13.50;99.90;;;;;;5431654;26;20330;-62
2024/04/12 04:30:38;;;;;;;;;;;13.50;99.90;;;;;;5460419;26;19928;-62
2024/04/12 04:33:05;;;;;;;;;;;13.50;99.90;;;;;;5449603;26;19927;-62
2024/04/12 04:35:33;;;;;;;;;;;13.60;99.90;;;;;;5442680;26;19928;-62
2024/04/12 04:38:01;;;;;;;;;;;13.50;99.90;;;;;;5461819;26;19932;-62
2024/04/12 04:40:27;;;;;;;;;;;13.50;99.90;;;;;;5451159;26;19934;-62
2024/04/12 04:42:54;;;;;;;;;;;13.50;99.90;;;;;;5468843;26;19929;-63
2024/04/12 04:45:21;;;;;;;;;;;13.40;99.90;;;;;;5441327;26;19928;-63
2024/04/12 04:47:48;;;;;;;;;;;13.50;99.90;;;;;;5436023;26;19928;-62
2024/04/12 04:50:20;;;;;;;;;;;13.40;99.90;;;;;;5450475;26;20278;-63
2024/04/12 04:52:50;;;;;;;;;;;13.40;99.90;;;;;;5439655;26;20274;-63
2024/04/12 04:55:17;;;;;;;;;;;13.50;99.90;;;;;;5436251;26;19933;-63
2024/04/12 04:57:44;;;;;;;;;;;13.40;99.90;;;;;;5450101;26;19935;-63
2024/04/12 05:00:18;;;;;;;;;;;13.50;99.90;;;;;;5451828;26;19935;-63
2024/04/12 05:02:50;;;;;;;;;;;13.50;99.90;;;;;;5447879;26;20346;-63
2024/04/12 05:05:23;;;;;;;;;;;13.40;99.90;;;;;;5452831;26;19935;-63
2024/04/12 05:07:52;;;;;;;;;;;13.60;99.90;;;;;;5451395;26;20375;-63
2024/04/12 05:10:20;;;;;;;;;;;13.50;99.90;;;;;;5465152;26;20356;-63
2024/04/12 05:12:49;;;;;;;;;;;13.60;99.90;;;;;;5452216;26;20383;-63
2024/04/12 05:18:05;;;;;;;;;;;13.50;99.90;;;;;;5453232;26;20298;-63
2024/04/12 05:20:41;;;;;;;;;;;13.50;99.90;;;;;;5450664;26;19936;-64
2024/04/12 05:23:11;;;;;;;;;;;13.50;99.90;;;;;;5450424;26;19928;-63
2024/04/12 05:25:41;;;;;;;;;;;13.60;99.90;;;;;;5451906;26;20398;-63
2024/04/12 05:28:08;;;;;;;;;;;13.70;99.90;;;;;;5453081;26;20636;-63
2024/04/12 05:30:41;;;;;;;;;;;13.50;99.90;;;;;;5455838;26;19935;-63
2024/04/12 05:33:12;;;;;;;;;;;13.50;99.90;;;;;;5450742;26;19935;-64
2024/04/12 05:35:40;;;;;;;;;;;13.60;99.90;;;;;;5448945;26;20290;-63
2024/04/12 05:38:07;;;;;;;;;;;13.60;99.90;;;;;;5449944;26;19943;-63
2024/04/12 05:40:39;;;;;;;;;;;13.70;99.90;;;;;;5448818;26;19928;-62
2024/04/12 05:43:15;;;;;;;;;;;13.60;99.90;;;;;;5451544;26;19928;-63
2024/04/12 05:45:47;;;;;;;;;;;13.60;99.90;;;;;;5452851;26;19934;-63
2024/04/12 05:48:15;;;;;;;;;;;13.40;99.90;;;;;;5446568;26;19943;-63
2024/04/12 05:50:48;;;;;;;;;;;13.70;99.90;;;;;;5453215;26;19927;-63
2024/04/12 05:53:16;;;;;;;;;;;13.60;99.90;;;;;;5447016;26;20417;-63
2024/04/12 05:55:52;;;;;;;;;;;13.70;99.90;;;;;;5450514;26;19928;-63
2024/04/12 05:58:23;;;;;;;;;;;13.70;99.90;;;;;;5451124;26;19928;-62
2024/04/12 06:00:50;;;;;;;;;;;13.70;99.90;;;;;;5451279;26;19939;-63
2024/04/12 06:03:17;;;;;;;;;;;13.80;99.90;;;;;;5454506;26;19928;-63
2024/04/12 06:05:55;;;;;;;;;;;13.70;99.90;;;;;;5449424;26;20258;-63
2024/04/12 06:08:22;;;;;;;;;;;13.80;99.90;;;;;;5454175;26;19928;-62
2024/04/12 06:10:50;;;;;;;;;;;13.70;99.90;;;;;;5450668;26;19928;-63
2024/04/12 06:13:17;;;;;;;;;;;13.80;99.90;;;;;;5454248;26;19934;-63
2024/04/12 06:15:45;;;;;;;;;;;13.70;99.90;;;;;;5447530;26;20408;-63
2024/04/12 06:18:12;;;;;;;;;;;13.60;99.90;;;;;;5448779;26;20271;-63
2024/04/12 06:20:39;;;;;;;;;;;13.80;99.90;;;;;;5452566;26;19929;-63
2024/04/12 06:23:06;;;;;;;;;;;13.70;99.90;;;;;;5447404;26;19940;-63
2024/04/12 06:25:38;;;;;;;;;;;13.70;99.90;;;;;;5450694;26;19935;-63
2024/04/12 06:28:11;;;;;;;;;;;13.60;99.90;;;;;;5447048;26;19929;-63
2024/04/12 06:30:41;;;;;;;;;;;13.80;99.90;;;;;;5445686;26;20707;-63
2024/04/12 06:33:08;;;;;;;;;;;13.80;99.90;;;;;;5451991;26;19936;-62
2024/04/12 06:35:36;;;;;;;;;;;13.80;99.90;;;;;;5450984;26;19934;-63
2024/04/12 06:38:08;;;;;;;;;;;13.70;99.90;;;;;;5449634;26;19928;-63
2024/04/12 06:40:37;;;;;;;;;;;13.70;99.90;;;;;;5432765;26;19929;-63
2024/04/12 06:43:07;;;;;;;;;;;13.50;99.90;;;;;;5446200;26;19929;-64
2024/04/12 06:45:41;;;;;;;;;;;13.70;99.90;;;;;;5447216;26;20616;-62
2024/04/12 06:48:10;;;;;;;;;;;13.70;99.90;;;;;;5451290;26;19935;-63
2024/04/12 06:50:37;;;;;;;;;;;13.80;99.90;;;;;;5448604;26;20375;-63
2024/04/12 06:53:08;;;;;;;;;;;13.70;99.90;;;;;;5446517;26;19928;-63
2024/04/12 06:55:46;;;;;;;;;;;13.90;99.90;;;;;;5442978;26;20262;-63
2024/04/12 06:58:13;;;;;;;;;;;13.80;99.90;;;;;;5435440;26;19929;-63
2024/04/12 07:00:40;;;;;;;;;;;14.00;99.90;;;;;;5433442;26;20393;-63
2024/04/12 07:03:08;;;;;;;;;;;13.90;99.90;;;;;;5430335;26;20418;-63
2024/04/12 07:05:35;;;;;;;;;;;14.10;99.90;;;;;;5436961;26;19935;-63
2024/04/12 07:08:05;;;;;;;;;;;14.00;99.90;;;;;;5436132;26;19928;-63
2024/04/12 07:10:32;;;;;;;;;;;14.10;99.90;;;;;;5427999;26;19935;-63
2024/04/12 07:13:01;;;;;;;;;;;14.10;99.90;;;;;;5436176;26;20465;-63
2024/04/12 07:15:28;;;;;;;;;;;14.20;99.90;;;;;;5442179;26;20327;-64
2024/04/12 07:17:58;;;;;;;;;;;14.30;99.90;;;;;;5442489;26;19943;-63
2024/04/12 07:20:27;;;;;;;;;;;14.20;99.90;;;;;;5428582;26;20401;-64
2024/04/12 07:22:55;;;;;;;;;;;14.30;99.90;;;;;;5443510;26;20330;-63
2024/04/12 07:25:23;;;;;;;;;;;14.30;99.90;;;;;;5433015;26;19934;-63
2024/04/12 07:27:53;;;;;;;;;;;14.40;99.90;;;;;;5433993;26;20398;-63
2024/04/12 07:30:21;;;;;;;;;;;14.50;99.90;;;;;;5448195;26;19935;-63
2024/04/12 07:32:47;;;;;;;;;;;14.60;99.90;;;;;;5435029;26;19977;-63
2024/04/12 07:35:25;;;;;;;;;;;14.70;99.90;;;;;;5438288;26;19935;-63
2024/04/12 07:37:54;;;;;;;;;;;14.80;99.90;;;;;;5446318;26;19934;-63
2024/04/12 07:40:24;;;;;;;;;;;14.70;99.90;;;;;;5438752;26;19934;-63
2024/04/12 07:42:52;;;;;;;;;;;14.80;99.90;;;;;;5441929;26;20284;-62
2024/04/12 07:45:25;;;;;;;;;;;14.90;99.90;;;;;;5449565;26;19928;-63
2024/04/12 07:47:53;;;;;;;;;;;14.90;99.90;;;;;;5450768;26;19928;-64
2024/04/12 07:50:33;;;;;;;;;;;15.00;99.90;;;;;;5447864;26;19954;-63
2024/04/12 07:53:22;;;;;;;;;;;14.90;99.90;;;;;;5445749;26;19928;-63
2024/04/12 07:56:14;;;;;;;;;;;15.00;99.90;;;;;;5449416;26;19929;-63
2024/04/12 07:58:42;;;;;;;;;;;15.00;99.90;;;;;;5444547;26;20363;-63
2024/04/12 08:01:15;;;;;;;;;;;15.00;99.90;;;;;;5445444;26;20389;-63
2024/04/12 08:03:42;;;;;;;;;;;15.10;99.90;;;;;;5450214;26;19935;-62
2024/04/12 08:06:36;;;;;;;;;;;15.20;99.90;;;;;;5447782;26;20435;-63
2024/04/12 08:09:21;;;;;;;;;;;15.20;99.90;;;;;;5448528;26;20338;-63
2024/04/12 08:11:59;;;;;;;;;;;15.30;99.90;;;;;;5446691;26;20372;-63
2024/04/12 08:14:26;;;;;;;;;;;15.50;99.90;;;;;;5453062;26;20364;-63
2024/04/12 08:16:55;;;;;;;;;;;15.50;99.90;;;;;;5453175;26;19935;-63
2024/04/12 08:19:22;;;;;;;;;;;15.60;99.90;;;;;;5449731;26;20239;-63
2024/04/12 08:21:49;;;;;;;;;;;15.60;99.90;;;;;;5445075;26;20671;-64
2024/04/12 08:24:22;;;;;;;;;;;15.70;99.90;;;;;;5446302;26;19934;-63
2024/04/12 08:26:51;;;;;;;;;;;15.70;99.90;;;;;;5447382;26;19936;-65
2024/04/12 08:29:28;;;;;;;;;;;15.90;99.90;;;;;;5453103;26;19927;-64
2024/04/12 08:34:44;;;;;;;;;;;16.20;99.90;;;;;;5449517;26;19935;-63
2024/04/12 08:37:16;;;;;;;;;;;16.50;99.90;;;;;;5450734;26;19928;-63
2024/04/12 08:39:43;;;;;;;;;;;16.70;99.90;;;;;;5448384;26;19927;-64
2024/04/12 08:42:11;;;;;;;;;;;16.90;99.90;;;;;;5449053;26;19928;-64
2024/04/12 08:44:38;;;;;;;;;;;17.20;99.90;;;;;;5448299;26;19935;-64
2024/04/12 08:49:54;;;;;;;;;;;17.80;99.90;;;;;;5449012;26;19929;-63
2024/04/12 08:52:29;;;;;;;;;;;17.90;99.90;;;;;;5451055;26;19928;-63
2024/04/12 08:54:59;;;;;;;;;;;17.90;99.90;;;;;;5446315;26;20269;-63
2024/04/12 08:57:26;;;;;;;;;;;18.20;99.90;;;;;;5449940;26;20542;-63
2024/04/12 09:00:00;;;;;;;;;;;18.00;99.90;;;;;;5451452;26;19935;-64
2024/04/12 09:02:34;;;;;;;;;;;18.00;99.90;;;;;;5437119;26;19943;-64
2024/04/12 09:05:01;;;;;;;;;;;18.10;99.90;;;;;;5439511;26;20404;-62
2024/04/12 09:07:27;;;;;;;;;;;18.20;99.90;;;;;;5436142;26;19942;-63
2024/04/12 09:09:55;;;;;;;;;;;18.30;99.90;;;;;;5443748;26;19934;-64
2024/04/12 09:12:25;;;;;;;;;;;18.50;99.90;;;;;;5442245;26;20048;-64
2024/04/12 09:14:53;;;;;;;;;;;18.40;99.90;;;;;;5452584;26;19928;-64
2024/04/12 09:17:28;;;;;;;;;;;18.40;99.90;;;;;;5442135;26;19939;-63
2024/04/12 09:19:58;;;;;;;;;;;18.50;99.90;;;;;;5443890;26;20376;-63
2024/04/12 09:22:27;;;;;;;;;;;18.50;99.90;;;;;;5450529;26;19929;-65
2024/04/12 09:24:58;;;;;;;;;;;18.70;99.90;;;;;;5450641;26;20420;-63
2024/04/12 09:27:34;;;;;;;;;;;18.80;99.90;;;;;;5445087;26;19928;-63
2024/04/12 09:32:50;;;;;;;;;;;18.60;99.90;;;;;;5452017;26;19927;-63
2024/04/12 09:32:50;;;;;;;;;;;18.50;99.90;;;;;;5446322;26;20495;-63
2024/04/12 09:35:18;;;;;;;;;;;18.50;99.90;;;;;;5446522;26;19936;-63
2024/04/12 09:37:54;;;;;;;;;;;18.60;99.90;;;;;;5446312;26;19936;-62
2024/04/12 09:40:28;;;;;;;;;;;18.60;99.90;;;;;;5447183;26;19934;-61
2024/04/12 09:45:27;;;;;;;;;;;18.50;99.90;;;;;;5448056;26;19928;-63
2024/04/12 10:38:04;;;;;;;;;;;19.40;97.10;;;;;;5443515;26;19934;-62
2024/04/12 10:40:31;;;;;;;;;;;19.40;97.10;;;;;;5439638;26;20283;-61
2024/04/12 10:42:57;;;;;;;;;;;19.40;96.30;;;;;;5440436;26;20385;-61
2024/04/12 10:45:29;;;;;;;;;;;19.30;97.30;;;;;;5445179;26;20073;-61
2024/04/12 10:47:56;;;;;;;;;;;19.10;97.30;;;;;;5438868;26;19936;-61
2024/04/12 10:50:23;;;;;;;;;;;19.00;96.50;;;;;;5442310;26;19936;-62
2024/04/12 10:52:51;;;;;;;;;;;18.80;97.40;;;;;;5435183;26;20525;-62
2024/04/12 10:55:20;;;;;;;;;;;18.80;98.40;;;;;;5439078;26;19935;-62
2024/04/12 10:57:47;;;;;;;;;;;18.90;99.90;;;;;;5441348;26;20511;-62
2024/04/12 11:00:16;;;;;;;;;;;18.80;98.50;;;;;;5446815;26;19934;-62
2024/04/12 11:02:46;;;;;;;;;;;18.90;99.50;;;;;;5442131;26;19928;-62
2024/04/12 11:07:49;;;;;;;;;;;19.10;99.90;;;;;;5442112;26;19938;-62
2024/04/12 11:10:38;;;;;;;;;;;19.30;99.90;;;;;;5446432;26;19928;-62
2024/04/12 11:13:16;;;;;;;;;;;19.40;99.40;;;;;;5443963;26;20270;-62
2024/04/12 11:32:06;;;;;;;;;;;19.90;99.90;;;;;;5449008;26;19928;-62
2024/04/12 11:34:33;;;;;;;;;;;19.80;98.00;;;;;;5440261;26;19928;-62
2024/04/12 11:37:05;;;;;;;;;;;19.80;98.60;;;;;;5446811;26;20436;-63
2024/04/12 11:39:38;;;;;;;;;;;19.70;99.60;;;;;;5441608;26;20373;-62
2024/04/12 11:42:05;;;;;;;;;;;19.70;98.70;;;;;;5442602;26;20462;-62
2024/04/12 11:44:36;;;;;;;;;;;19.60;97.30;;;;;;5449682;26;19928;-62
2024/04/12 11:47:03;;;;;;;;;;;19.40;97.70;;;;;;5448169;26;19928;-61
2024/04/12 11:49:45;;;;;;;;;;;19.50;99.10;;;;;;5436674;26;19934;-60
2024/04/12 11:52:18;;;;;;;;;;;19.60;98.80;;;;;;5441020;26;20268;-62
2024/04/12 11:54:53;;;;;;;;;;;19.40;98.90;;;;;;5440596;26;20887;-62
2024/04/12 11:57:22;;;;;;;;;;;19.50;99.90;;;;;;5435238;26;20340;-62
2024/04/12 11:59:59;;;;;;;;;;;19.20;98.70;;;;;;5437868;26;20368;-62
2024/04/12 12:02:31;;;;;;;;;;;19.30;99.40;;;;;;5441713;26;20834;-61
2024/04/12 12:04:59;;;;;;;;;;;19.50;99.90;;;;;;5448268;26;20275;-62
2024/04/12 12:07:29;;;;;;;;;;;19.50;99.90;;;;;;5442073;26;20717;-62
2024/04/12 12:09:56;;;;;;;;;;;19.60;99.90;;;;;;5450086;26;19943;-61
2024/04/12 12:12:26;;;;;;;;;;;19.60;99.80;;;;;;5448498;26;20374;-62
2024/04/12 12:14:53;;;;;;;;;;;19.50;98.00;;;;;;5449407;26;19928;-62
2024/04/12 12:17:20;;;;;;;;;;;19.40;98.50;;;;;;5450803;26;19928;-61
2024/04/12 12:19:50;;;;;;;;;;;19.40;99.20;;;;;;5449771;26;19943;-61
2024/04/12 12:22:18;;;;;;;;;;;19.30;98.70;;;;;;5447435;26;19929;-61
2024/04/12 12:24:45;;;;;;;;;;;19.20;98.40;;;;;;5445621;26;20712;-62
2024/04/12 12:27:12;;;;;;;;;;;19.10;99.00;;;;;;5445898;26;19928;-62
2024/04/12 12:29:42;;;;;;;;;;;19.00;99.20;;;;;;5446172;26;20332;-62
2024/04/12 12:32:08;;;;;;;;;;;19.10;99.90;;;;;;5444835;26;20458;-61
2024/04/12 12:34:38;;;;;;;;;;;19.20;99.90;;;;;;5446829;26;20252;-62
2024/04/12 12:37:06;;;;;;;;;;;19.30;99.90;;;;;;5451071;26;19927;-62
2024/04/12 12:39:33;;;;;;;;;;;19.50;99.90;;;;;;5440908;26;19936;-62
2024/04/12 12:42:01;;;;;;;;;;;19.80;99.90;;;;;;5447964;26;19928;-62
2024/04/12 12:44:31;;;;;;;;;;;19.90;99.30;;;;;;5450982;26;19937;-62
2024/04/12 12:47:02;;;;;;;;;;;20.00;99.90;;;;;;5448005;26;19928;-61
2024/04/12 12:49:39;;;;;;;;;;;19.90;98.60;;;;;;5443653;26;19942;-62
2024/04/12 12:52:11;;;;;;;;;;;19.90;98.60;;;;;;5449588;26;20398;-62
2024/04/12 12:54:45;;;;;;;;;;;20.10;99.90;;;;;;5451436;26;19934;-62
2024/04/12 12:57:14;;;;;;;;;;;20.10;98.90;;;;;;5447749;26;19928;-62
2024/04/12 12:59:43;;;;;;;;;;;20.10;99.00;;;;;;5448573;26;19934;-62
2024/04/12 13:02:14;;;;;;;;;;;20.00;98.30;;;;;;5442907;26;20393;-62
2024/04/12 13:04:42;;;;;;;;;;;20.20;98.40;;;;;;5450565;26;20298;-62
2024/04/12 13:07:09;;;;;;;;;;;20.20;99.50;;;;;;5446292;26;19936;-62
2024/04/12 13:09:37;;;;;;;;;;;20.10;98.40;;;;;;5445363;26;19928;-61
2024/04/12 13:12:10;;;;;;;;;;;20.10;98.80;;;;;;5450163;26;19938;-62
2024/04/12 13:14:39;;;;;;;;;;;19.90;98.80;;;;;;5450922;26;20417;-61
2024/04/12 13:17:12;;;;;;;;;;;19.80;98.60;;;;;;5443774;26;19929;-62
2024/04/12 13:19:41;;;;;;;;;;;20.00;98.80;;;;;;5448980;26;19943;-62
2024/04/12 13:22:11;;;;;;;;;;;20.00;98.80;;;;;;5440921;26;20964;-62
2024/04/12 13:24:38;;;;;;;;;;;19.80;97.90;;;;;;5449874;26;19929;-62
2024/04/12 13:27:07;;;;;;;;;;;20.00;99.90;;;;;;5443912;26;19934;-62
2024/04/12 13:29:34;;;;;;;;;;;20.00;97.80;;;;;;5445401;26;20272;-62
2024/04/12 13:32:01;;;;;;;;;;;19.90;98.80;;;;;;5444492;26;19928;-61
2024/04/12 13:34:28;;;;;;;;;;;19.90;99.30;;;;;;5447718;26;20481;-62
2024/04/12 13:36:58;;;;;;;;;;;19.70;98.70;;;;;;5448567;26;19932;-62
2024/04/12 13:39:25;;;;;;;;;;;19.60;99.20;;;;;;5445867;26;19935;-62
2024/04/12 13:41:56;;;;;;;;;;;19.60;98.00;;;;;;5450040;26;20466;-63
2024/04/12 13:50:45;;;;;;;;;;;19.40;99.20;;;;;;5447715;26;19928;-63
2024/04/12 13:52:48;;;;;;;;;;;19.20;98.80;;;;;;5448077;26;19937;-61
2024/04/12 13:55:15;;;;;;;;;;;19.30;99.90;;;;;;5437324;26;20513;-61
2024/04/12 13:57:43;;;;;;;;;;;19.50;99.90;;;;;;5438064;26;19934;-61
2024/04/12 14:00:13;;;;;;;;;;;19.60;99.90;;;;;;5445420;26;20267;-62
2024/04/12 14:02:40;;;;;;;;;;;19.60;99.90;;;;;;5446619;26;20371;-61
2024/04/12 14:05:17;;;;;;;;;;;19.30;99.80;;;;;;5446972;26;20850;-61
2024/04/12 14:07:49;;;;;;;;;;;19.10;99.90;;;;;;5427432;26;20392;-62
2024/04/12 14:10:20;;;;;;;;;;;19.10;99.90;;;;;;5437293;26;20363;-62
2024/04/12 14:12:48;;;;;;;;;;;19.10;99.90;;;;;;5440428;26;19947;-61
2024/04/12 14:15:17;;;;;;;;;;;19.10;99.90;;;;;;5440881;26;19936;-61
2024/04/12 14:17:44;;;;;;;;;;;19.00;99.90;;;;;;5445165;26;19966;-61
2024/04/12 14:20:15;;;;;;;;;;;19.00;99.90;;;;;;5445438;26;19928;-63
2024/04/12 14:22:42;;;;;;;;;;;18.80;99.90;;;;;;5444619;26;19935;-62
2024/04/12 14:25:08;;;;;;;;;;;19.00;99.90;;;;;;5442189;26;19943;-62
2024/04/12 14:27:35;;;;;;;;;;;19.00;99.90;;;;;;5444200;26;19928;-61
2024/04/12 14:30:06;;;;;;;;;;;19.10;99.90;;;;;;5445743;26;20286;-61
2024/04/12 14:32:33;;;;;;;;;;;19.30;99.90;;;;;;5448130;26;20274;-62
2024/04/12 14:35:00;;;;;;;;;;;19.10;99.90;;;;;;5452734;26;20369;-62
2024/04/12 14:37:26;;;;;;;;;;;19.10;99.90;;;;;;5443152;26;19929;-62
2024/04/12 14:39:53;;;;;;;;;;;19.10;99.90;;;;;;5447757;26;19928;-62
2024/04/12 14:42:20;;;;;;;;;;;19.20;99.90;;;;;;5444568;26;19943;-61
2024/04/12 14:44:47;;;;;;;;;;;19.00;99.90;;;;;;5454664;26;19928;-61
2024/04/12 14:47:14;;;;;;;;;;;19.10;99.90;;;;;;5447249;26;19928;-62
2024/04/12 14:49:41;;;;;;;;;;;19.30;99.90;;;;;;5444520;26;19928;-62
2024/04/12 14:52:11;;;;;;;;;;;19.00;99.90;;;;;;5442234;26;20392;-62
2024/04/12 14:54:41;;;;;;;;;;;19.10;99.90;;;;;;5443907;26;19934;-63
2024/04/12 14:57:08;;;;;;;;;;;19.30;99.90;;;;;;5445349;26;20381;-62
2024/04/12 14:59:35;;;;;;;;;;;19.30;99.90;;;;;;5438843;26;19935;-62
2024/04/12 15:02:03;;;;;;;;;;;19.20;99.90;;;;;;5431442;26;19935;-62
2024/04/12 15:48:40;;;;;;;;;;;19.00;99.90;;;;;;5446249;26;19929;-62
2024/04/12 15:51:07;;;;;;;;;;;18.80;99.90;;;;;;5444417;26;20461;-61
2024/04/12 15:53:35;;;;;;;;;;;18.60;99.90;;;;;;5443119;26;19929;-61
2024/04/12 16:12:25;;;;;;;;;;;18.10;99.90;;;;;;5442915;26;19929;-61
2024/04/12 16:14:52;;;;;;;;;;;18.00;99.90;;;;;;5442873;26;19936;-61
2024/04/12 16:17:19;;;;;;;;;;;17.90;99.90;;;;;;5437033;26;20586;-62
2024/04/12 16:19:46;;;;;;;;;;;17.90;99.90;;;;;;5435688;26;19928;-62
2024/04/12 16:22:13;;;;;;;;;;;17.70;99.90;;;;;;5450525;26;19928;-62
2024/04/12 16:24:40;;;;;;;;;;;17.70;99.90;;;;;;5447770;26;19936;-62
2024/04/12 16:27:07;;;;;;;;;;;17.60;99.90;;;;;;5438170;26;19975;-62
2024/04/12 16:29:35;;;;;;;;;;;17.60;99.90;;;;;;5429997;26;19929;-61
2024/04/12 16:32:03;;;;;;;;;;;17.50;99.90;;;;;;5437413;26;19935;-62
2024/04/12 16:34:30;;;;;;;;;;;17.40;99.90;;;;;;5439359;26;19928;-62
2024/04/12 16:36:57;;;;;;;;;;;17.30;99.90;;;;;;5441168;26;19929;-62
2024/04/12 16:39:24;;;;;;;;;;;17.10;99.90;;;;;;5446031;26;20290;-62
2024/04/12 16:41:50;;;;;;;;;;;17.10;99.90;;;;;;5449591;26;19927;-62
2024/04/12 16:44:17;;;;;;;;;;;17.10;99.90;;;;;;5443131;26;19934;-62
2024/04/12 16:46:44;;;;;;;;;;;17.00;99.90;;;;;;5444778;26;20001;-63
2024/04/12 16:49:11;;;;;;;;;;;17.00;99.90;;;;;;5444394;26;19927;-62
2024/04/12 16:51:39;;;;;;;;;;;17.00;99.90;;;;;;5442459;26;20163;-62
2024/04/12 16:54:06;;;;;;;;;;;16.90;99.90;;;;;;5424365;26;20235;-62
2024/04/12 16:56:34;;;;;;;;;;;16.90;99.90;;;;;;5444368;26;20262;-62